Time;durP1;ratioP1;P1;durP2;ratioP2;P2;SDS_P1;SDS_P2;PMS_P1;PMS_P2;Temp;Humidity;BMP_temperature;BMP_pressure;BME280_temperature;BME280_humidity;BME280_pressure;Samples;Min_cycle;Max_cycle;Signal;HPM_P1;HPM_P2
2022/12/22 03:28:05;;;;;;;65.03;11.82;;;;;;;8.73;100.00;99999.00;5018637;28;20026;-73
2022/12/22 03:30:30;;;;;;;80.75;11.70;;;;;;;8.69;100.00;99995.19;5018596;28;20026;-73
2022/12/22 03:32:56;;;;;;;62.58;11.20;;;;;;;8.67;100.00;99991.06;5023363;28;20022;-73
2022/12/22 03:35:21;;;;;;;62.78;11.20;;;;;;;8.65;100.00;99988.56;5018459;28;20446;-73
2022/12/22 03:37:47;;;;;;;62.60;10.57;;;;;;;8.62;100.00;99991.13;5018025;28;20069;-73
2022/12/22 03:40:12;;;;;;;55.90;10.18;;;;;;;8.59;100.00;99986.16;5016846;28;20041;-73
2022/12/22 03:48:06;;;;;;;79.63;11.88;;;;;;;8.54;100.00;99998.13;5017157;28;20100;-73
2022/12/22 03:50:32;;;;;;;79.13;11.40;;;;;;;8.52;100.00;100000.34;5016845;28;20041;-73
2022/12/22 03:52:57;;;;;;;59.45;10.50;;;;;;;8.53;100.00;99995.66;5019596;28;20109;-73
2022/12/22 03:55:23;;;;;;;54.00;9.25;;;;;;;8.53;100.00;100002.00;5017126;28;20041;-73
2022/12/22 03:57:48;;;;;;;60.40;10.32;;;;;;;8.54;100.00;100003.66;5018081;28;20033;-73
2022/12/22 04:00:14;;;;;;;62.47;10.30;;;;;;;8.53;100.00;99999.25;5017839;28;20030;-73
2022/12/22 04:02:40;;;;;;;74.70;11.57;;;;;;;8.52;100.00;100003.09;5034313;28;20037;-73
2022/12/22 04:05:06;;;;;;;64.85;9.90;;;;;;;8.55;100.00;100016.34;5037727;28;20080;-73
2022/12/22 04:07:31;;;;;;;67.97;10.32;;;;;;;8.57;100.00;100016.91;5037696;28;20025;-73
2022/12/22 04:12:53;;;;;;;60.00;10.35;;;;;;;8.60;100.00;100008.00;5020921;28;20056;-73
2022/12/22 04:15:18;;;;;;;57.65;9.95;;;;;;;8.60;100.00;100013.53;5017924;28;20093;-73
2022/12/22 04:17:44;;;;;;;65.45;12.02;;;;;;;8.62;100.00;100013.25;5017910;28;20440;-73
2022/12/22 04:20:10;;;;;;;62.65;10.60;;;;;;;8.62;100.00;100016.84;5017338;28;20076;-73
2022/12/22 04:22:35;;;;;;;57.08;9.82;;;;;;;8.62;100.00;100014.09;5017456;28;20112;-73
2022/12/22 04:25:01;;;;;;;68.20;11.25;;;;;;;8.62;100.00;100016.84;5017232;28;20561;-73
2022/12/22 04:27:26;;;;;;;67.43;10.52;;;;;;;8.63;100.00;100017.66;5030407;28;20474;-73
2022/12/22 04:29:52;;;;;;;69.78;11.10;;;;;;;8.65;100.00;100024.56;5017500;28;20088;-73
2022/12/22 04:32:17;;;;;;;71.88;10.63;;;;;;;8.66;100.00;100011.53;5022188;28;20148;-73
2022/12/22 04:34:43;;;;;;;69.13;11.65;;;;;;;8.65;100.00;100010.72;5016838;28;20044;-73
2022/12/22 04:37:08;;;;;;;64.18;10.35;;;;;;;8.67;100.00;100015.97;5017095;28;20050;-73
2022/12/22 04:39:34;;;;;;;57.03;9.45;;;;;;;8.67;100.00;100002.97;5017292;28;20030;-73
2022/12/22 04:41:59;;;;;;;69.40;10.77;;;;;;;8.67;100.00;100005.72;5026189;28;20029;-73
2022/12/22 04:44:25;;;;;;;59.83;11.20;;;;;;;8.69;100.00;100005.41;5016106;28;20025;-73
2022/12/22 04:46:50;;;;;;;72.88;11.23;;;;;;;8.68;100.00;99990.75;5017199;28;20080;-73
2022/12/22 04:49:16;;;;;;;65.97;9.32;;;;;;;8.67;100.00;99994.66;5016723;28;20034;-73
2022/12/22 04:51:41;;;;;;;91.05;12.30;;;;;;;8.68;100.00;99999.06;5024050;28;20029;-73
2022/12/22 04:54:07;;;;;;;62.92;9.07;;;;;;;8.66;100.00;99994.94;5035720;28;20033;-73
2022/12/22 04:56:32;;;;;;;67.00;11.15;;;;;;;8.64;100.00;100002.72;5036342;28;20033;-73
2022/12/22 04:58:58;;;;;;;70.68;11.27;;;;;;;8.64;100.00;99999.97;5036361;28;20474;-73
2022/12/22 05:01:23;;;;;;;74.93;11.75;;;;;;;8.61;100.00;99993.06;5020669;28;20029;-73
2022/12/22 05:03:49;;;;;;;72.30;11.40;;;;;;;8.62;100.00;100011.31;5035341;28;20029;-73
2022/12/22 05:06:14;;;;;;;74.75;11.73;;;;;;;8.62;100.00;100005.78;5015489;28;20030;-73
2022/12/22 05:08:40;;;;;;;81.10;12.52;;;;;;;8.63;100.00;100010.19;4999320;28;20038;-73
2022/12/22 05:11:05;;;;;;;68.40;11.82;;;;;;;8.62;100.00;100014.09;5018176;28;20034;-73
2022/12/22 05:13:31;;;;;;;69.63;10.45;;;;;;;8.62;100.00;100019.63;5017571;28;20022;-73
2022/12/22 05:16:08;;;;;;;66.97;11.23;;;;;;;8.61;100.00;100026.28;5016814;28;20683;-73
2022/12/22 05:18:34;;;;;;;68.22;11.07;;;;;;;8.61;100.00;100026.28;5015512;28;20371;-73
2022/12/22 05:21:24;;;;;;;72.07;11.10;;;;;;;8.60;100.00;100037.63;5016697;28;20202;-73
2022/12/22 05:23:49;;;;;;;68.47;10.60;;;;;;;8.59;100.00;100034.03;5028134;28;20081;-73
2022/12/22 05:26:15;;;;;;;80.10;11.30;;;;;;;8.61;100.00;100044.81;5011532;28;20030;-73
2022/12/22 05:28:41;;;;;;;75.65;11.10;;;;;;;8.61;100.00;100042.88;5016587;28;20026;-73
2022/12/22 05:31:16;;;;;;;69.60;11.25;;;;;;;8.60;100.00;100035.69;5016480;28;20117;-73
2022/12/22 05:33:42;;;;;;;67.22;11.32;;;;;;;8.59;100.00;100033.22;5017330;28;20105;-73
2022/12/22 05:36:07;;;;;;;68.50;10.50;;;;;;;8.59;100.00;100033.22;5016854;28;20042;-73
2022/12/22 05:38:33;;;;;;;60.08;9.82;;;;;;;8.60;100.00;100032.09;5016994;28;20030;-73
2022/12/22 05:40:58;;;;;;;59.65;9.98;;;;;;;8.57;100.00;100044.56;5015731;28;20391;-73
2022/12/22 05:43:24;;;;;;;82.18;12.52;;;;;;;8.58;100.00;100026.88;5033733;28;20103;-73
2022/12/22 05:45:49;;;;;;;72.18;10.90;;;;;;;8.60;100.00;100041.22;5017060;28;20153;-73
2022/12/22 05:48:15;;;;;;;75.38;11.10;;;;;;;8.59;100.00;100038.75;5016012;28;20037;-73
2022/12/22 05:50:40;;;;;;;87.18;12.38;;;;;;;8.60;100.00;100024.63;5015948;28;20030;-73
2022/12/22 05:53:06;;;;;;;83.50;12.23;;;;;;;8.58;100.00;100023.25;5032501;28;20029;-73
2022/12/22 05:55:32;;;;;;;73.32;10.70;;;;;;;8.58;100.00;100028.78;5035939;28;20742;-73
2022/12/22 05:58:00;;;;;;;69.13;10.75;;;;;;;8.56;100.00;100036.59;5035639;28;20025;-73
2022/12/22 06:00:26;;;;;;;77.43;12.57;;;;;;;8.57;100.00;100036.28;5035599;28;20026;-73
2022/12/22 06:02:52;;;;;;;78.25;13.48;;;;;;;8.58;100.00;100026.03;5003226;28;20040;-73
2022/12/22 06:05:17;;;;;;;92.25;14.45;;;;;;;8.57;100.00;100025.19;5015810;28;20033;-73
2022/12/22 06:07:43;;;;;;;69.95;10.88;;;;;;;8.58;100.00;100024.09;5014375;28;20116;-73
2022/12/22 06:10:09;;;;;;;66.43;11.55;;;;;;;8.55;100.00;100016.34;5015860;28;20080;-73
2022/12/22 06:12:34;;;;;;;73.72;11.57;;;;;;;8.56;100.00;100029.09;5016556;28;20239;-73
2022/12/22 06:15:00;;;;;;;59.08;10.63;;;;;;;8.56;100.00;100019.97;5015862;28;20390;-73
2022/12/22 06:17:25;;;;;;;72.60;11.70;;;;;;;8.55;100.00;100021.88;5015690;28;20034;-73
2022/12/22 06:19:51;;;;;;;75.00;12.57;;;;;;;8.54;100.00;100014.72;5015797;28;20057;-73
2022/12/22 06:22:16;;;;;;;69.22;10.18;;;;;;;8.56;100.00;100014.44;5024552;28;20037;-73
2022/12/22 06:24:42;;;;;;;73.88;13.00;;;;;;;8.55;100.00;100013.59;5013458;28;20037;-73
2022/12/22 06:27:07;;;;;;;77.25;12.07;;;;;;;8.56;100.00;100011.66;5013513;28;20040;-73
2022/12/22 06:29:33;;;;;;;73.20;10.63;;;;;;;8.53;100.00;100018.63;5015736;28;20026;-73
2022/12/22 06:31:58;;;;;;;66.00;9.65;;;;;;;8.53;100.00;100024.16;5016638;28;20048;-73
2022/12/22 06:34:24;;;;;;;82.88;11.43;;;;;;;8.53;100.00;100038.00;5015330;28;20033;-73
2022/12/22 06:36:50;;;;;;;75.82;11.20;;;;;;;8.53;100.00;100037.16;5015317;28;20058;-73
2022/12/22 06:39:15;;;;;;;73.57;10.70;;;;;;;8.52;100.00;100043.81;5015464;28;20029;-73
2022/12/22 06:44:25;;;;;;;68.80;10.02;;;;;;;8.48;100.00;100036.09;5005563;28;20096;-73
2022/12/22 06:46:51;;;;;;;80.20;11.15;;;;;;;8.47;100.00;100037.22;5014441;28;20105;-73
2022/12/22 06:49:16;;;;;;;66.32;10.00;;;;;;;8.45;100.00;100038.63;5013807;28;20026;-73
2022/12/22 06:51:42;;;;;;;62.22;10.18;;;;;;;8.45;100.00;100042.22;5019205;28;20508;-73
2022/12/22 06:54:07;;;;;;;71.60;11.57;;;;;;;8.43;100.00;100043.63;5034664;28;20398;-73
2022/12/22 06:56:33;;;;;;;64.80;10.02;;;;;;;8.40;100.00;100058.03;5014298;28;20026;-73
2022/12/22 06:58:58;;;;;;;74.70;10.20;;;;;;;8.40;100.00;100058.03;5015201;28;20033;-73
2022/12/22 07:01:24;;;;;;;64.85;11.07;;;;;;;8.41;100.00;100067.97;5015171;28;20030;-73
2022/12/22 07:03:49;;;;;;;60.95;9.55;;;;;;;8.39;100.00;100068.28;5021115;28;20030;-73
2022/12/22 07:06:17;;;;;;;58.45;10.25;;;;;;;8.40;100.00;100069.09;5015040;28;20034;-73
2022/12/22 07:08:43;;;;;;;63.78;8.48;;;;;;;8.38;100.00;100057.47;5028494;28;20041;-73
2022/12/22 07:11:09;;;;;;;59.60;9.07;;;;;;;8.39;100.00;100061.94;5014915;28;20117;-73
2022/12/22 07:13:35;;;;;;;64.50;10.25;;;;;;;8.39;100.00;100048.91;5018066;28;20605;-72
2022/12/22 07:16:01;;;;;;;70.28;10.18;;;;;;;8.39;100.00;100040.59;5015365;28;20105;-73
2022/12/22 07:18:28;;;;;;;65.82;9.20;;;;;;;8.39;100.00;100046.16;5013169;28;20037;-73
2022/12/22 07:20:53;;;;;;;65.45;9.43;;;;;;;8.39;100.00;100035.06;4994084;28;20045;-73
2022/12/22 07:23:19;;;;;;;51.97;8.85;;;;;;;8.40;100.00;100031.19;5020344;28;20090;-73
2022/12/22 07:25:44;;;;;;;66.30;8.35;;;;;;;8.40;100.00;100033.94;5005379;28;20037;-73
2022/12/22 07:28:10;;;;;;;72.72;9.77;;;;;;;8.41;100.00;100032.00;5018747;28;20041;-73
2022/12/22 07:30:35;;;;;;;61.78;8.95;;;;;;;8.41;100.00;100037.53;5017444;28;20088;-73
2022/12/22 07:33:02;;;;;;;71.60;10.00;;;;;;;8.42;100.00;100050.28;5018747;28;20042;-73
2022/12/22 07:35:28;;;;;;;70.68;10.10;;;;;;;8.43;100.00;100062.97;5031645;28;20034;-72
2022/12/22 07:37:53;;;;;;;69.38;10.00;;;;;;;8.42;100.00;100067.69;5018123;28;20584;-73
2022/12/22 07:40:19;;;;;;;69.72;9.65;;;;;;;8.43;100.00;100069.34;5018461;28;20044;-73
2022/12/22 07:42:44;;;;;;;66.05;9.07;;;;;;;8.44;100.00;100075.69;5029755;28;20091;-73
2022/12/22 07:45:14;;;;;;;63.20;9.20;;;;;;;8.43;100.00;100074.06;5021198;28;20041;-73
2022/12/22 07:47:40;;;;;;;70.40;9.18;;;;;;;8.44;100.00;100068.25;5018409;28;20046;-73
2022/12/22 07:50:24;;;;;;;72.82;10.30;;;;;;;8.45;100.00;100082.91;5017448;28;20114;-73
2022/12/22 07:53:00;;;;;;;73.95;9.80;;;;;;;8.46;100.00;100073.47;5027100;28;20116;-73
2022/12/22 07:55:29;;;;;;;65.90;9.60;;;;;;;8.46;100.00;100076.22;5017214;28;20034;-73
2022/12/22 07:57:54;;;;;;;73.05;10.45;;;;;;;8.46;100.00;100073.47;5017842;28;20026;-73
2022/12/22 08:00:20;;;;;;;60.70;9.50;;;;;;;8.46;100.00;100070.69;5020366;28;20037;-73
2022/12/22 08:02:52;;;;;;;66.35;9.40;;;;;;;8.47;100.00;100069.59;5019308;28;20034;-73
2022/12/22 08:05:17;;;;;;;69.10;10.38;;;;;;;8.47;100.00;100066.84;5002411;28;20030;-73
2022/12/22 08:07:43;;;;;;;74.90;9.10;;;;;;;8.46;100.00;100070.69;5020123;28;20037;-73
2022/12/22 08:10:09;;;;;;;67.78;8.95;;;;;;;8.47;100.00;100075.13;5020432;28;20029;-73
2022/12/22 08:12:34;;;;;;;72.30;10.45;;;;;;;8.48;100.00;100082.31;5020895;28;20119;-73
2022/12/22 08:15:00;;;;;;;70.18;10.38;;;;;;;8.47;100.00;100087.03;5016639;28;20393;-73
2022/12/22 08:17:26;;;;;;;64.38;9.35;;;;;;;8.48;100.00;100072.06;5017928;28;20026;-73
2022/12/22 08:19:53;;;;;;;74.15;9.38;;;;;;;8.47;100.00;100075.97;5017630;28;20041;-73
2022/12/22 08:22:18;;;;;;;68.88;9.32;;;;;;;8.49;100.00;100078.41;5017446;28;20061;-73
2022/12/22 08:24:44;;;;;;;62.63;8.70;;;;;;;8.50;100.00;100074.56;5006326;28;20041;-73
2022/12/22 08:27:11;;;;;;;77.25;8.73;;;;;;;8.53;100.00;100060.13;5060777;28;20034;-73
2022/12/22 08:29:39;;;;;;;63.15;8.48;;;;;;;8.53;100.00;100068.44;5060963;28;20409;-73
2022/12/22 08:32:05;;;;;;;78.95;11.32;;;;;;;8.54;100.00;100072.84;5016875;28;20085;-73
2022/12/22 08:34:30;;;;;;;65.57;9.25;;;;;;;8.57;100.00;100068.66;5017235;28;20029;-73
2022/12/22 08:36:58;;;;;;;60.78;8.45;;;;;;;8.59;100.00;100066.44;5017008;28;20086;-73
2022/12/22 08:39:24;;;;;;;64.18;8.88;;;;;;;8.60;100.00;100060.59;5016126;28;20025;-73
2022/12/22 08:41:49;;;;;;;66.07;9.50;;;;;;;8.62;100.00;100060.31;5020242;28;20048;-73
2022/12/22 08:44:25;;;;;;;68.43;8.73;;;;;;;8.64;100.00;100066.41;5015815;28;20784;-73
2022/12/22 08:46:51;;;;;;;63.60;8.95;;;;;;;8.67;100.00;100072.16;5007681;28;20038;-73
2022/12/22 08:49:16;;;;;;;62.65;9.73;;;;;;;8.69;100.00;100088.47;5016674;28;20042;-73
2022/12/22 08:51:42;;;;;;;56.75;9.35;;;;;;;8.71;100.00;100081.53;5018395;28;20076;-73
2022/12/22 08:54:08;;;;;;;77.40;9.20;;;;;;;8.74;100.00;100085.66;5035808;28;20087;-73
2022/12/22 08:56:34;;;;;;;70.25;9.32;;;;;;;8.77;100.00;100081.47;5035753;28;20088;-73
2022/12/22 08:59:03;;;;;;;72.07;8.95;;;;;;;8.80;100.00;100092.78;5035565;28;20056;-73
2022/12/22 09:01:30;;;;;;;75.07;10.05;;;;;;;8.83;100.00;100083.91;5052027;28;20103;-73
2022/12/22 09:03:55;;;;;;;80.53;9.85;;;;;;;8.85;100.00;100087.19;5017554;28;20030;-73
2022/12/22 09:06:21;;;;;;;73.20;10.40;;;;;;;8.89;100.00;100077.19;5024352;28;20397;-73
2022/12/22 09:08:47;;;;;;;76.30;10.30;;;;;;;8.92;100.00;100086.88;5036517;28;20026;-73
2022/12/22 09:11:13;;;;;;;67.35;9.50;;;;;;;8.96;100.00;100076.84;5020975;28;20034;-73
2022/12/22 09:13:39;;;;;;;79.97;10.18;;;;;;;8.99;100.00;100076.25;5032144;28;20541;-73
2022/12/22 09:16:06;;;;;;;72.68;9.57;;;;;;;9.01;100.00;100074.03;5036461;28;20099;-73
2022/12/22 09:18:31;;;;;;;80.75;10.32;;;;;;;9.03;100.00;100074.56;5036589;28;20033;-73
2022/12/22 09:20:57;;;;;;;75.03;10.23;;;;;;;9.07;100.00;100069.25;5035090;28;20056;-73
2022/12/22 09:23:22;;;;;;;92.38;11.00;;;;;;;9.12;100.00;100066.41;5019937;28;20041;-73
2022/12/22 09:25:48;;;;;;;83.72;11.38;;;;;;;9.15;100.00;100068.59;4985929;28;20033;-73
2022/12/22 09:28:13;;;;;;;67.57;10.15;;;;;;;9.15;100.00;100072.19;5011817;28;20382;-73
2022/12/22 09:30:39;;;;;;;80.97;11.95;;;;;;;9.18;100.00;100068.81;5029740;28;20030;-73
2022/12/22 09:33:04;;;;;;;73.07;10.63;;;;;;;9.22;100.00;100062.69;5003241;28;20034;-73
2022/12/22 09:35:30;;;;;;;87.68;10.98;;;;;;;9.22;100.00;100062.69;5016174;28;20117;-73
2022/12/22 09:37:56;;;;;;;82.15;9.95;;;;;;;9.24;100.00;100063.22;5016387;28;20058;-73
2022/12/22 09:40:23;;;;;;;84.28;10.55;;;;;;;9.29;100.00;100063.16;5026496;28;20091;-73
2022/12/22 09:42:49;;;;;;;77.90;9.73;;;;;;;9.29;100.00;100063.16;5015732;28;20487;-73
2022/12/22 09:45:21;;;;;;;78.45;11.23;;;;;;;9.33;100.00;100062.28;5014895;28;20034;-73
2022/12/22 09:47:52;;;;;;;83.70;10.88;;;;;;;9.34;100.00;100054.78;5015141;28;20033;-73
2022/12/22 09:50:24;;;;;;;74.22;9.75;;;;;;;9.36;100.00;100052.53;4999151;28;20036;-73
2022/12/22 09:53:03;;;;;;;85.80;10.38;;;;;;;9.39;100.00;100040.88;5020988;28;20108;-73
2022/12/22 09:55:32;;;;;;;90.55;12.00;;;;;;;9.40;100.00;100037.78;4998987;28;20471;-73
2022/12/22 09:57:57;;;;;;;69.38;10.38;;;;;;;9.45;100.00;100033.31;5016080;28;20030;-73
2022/12/22 10:00:27;;;;;;;83.30;10.65;;;;;;;9.43;100.00;100032.78;5015753;28;20564;-73
2022/12/22 10:03:05;;;;;;;85.35;11.13;;;;;;;9.46;100.00;100035.78;5017933;28;20038;-73
2022/12/22 10:05:42;;;;;;;81.50;11.32;;;;;;;9.47;100.00;100047.69;5014480;28;20033;-73
2022/12/22 10:08:28;;;;;;;72.45;10.00;;;;;;;9.50;100.00;100038.75;5014686;28;20044;-73
2022/12/22 10:10:54;;;;;;;82.45;11.00;;;;;;;9.50;100.00;100050.69;5015511;28;20042;-73
2022/12/22 10:13:20;;;;;;;84.50;11.77;;;;;;;9.52;100.00;100036.53;5015829;28;20454;-73
2022/12/22 10:15:46;;;;;;;66.55;10.90;;;;;;;9.52;100.00;100045.66;5015952;28;20034;-73
2022/12/22 10:18:12;;;;;;;69.97;9.27;;;;;;;9.53;100.00;100047.31;5014888;28;20089;-73
2022/12/22 10:20:38;;;;;;;67.82;11.18;;;;;;;9.54;100.00;100043.41;5013985;28;20022;-73
2022/12/22 10:23:21;;;;;;;74.47;10.00;;;;;;;9.58;100.00;100033.41;5025107;28;20132;-73
2022/12/22 10:25:56;;;;;;;74.40;10.30;;;;;;;9.62;100.00;100028.91;5012555;28;20037;-73
2022/12/22 10:28:38;;;;;;;75.45;10.77;;;;;;;9.63;100.00;100030.53;5029966;28;20048;-73
2022/12/22 10:31:13;;;;;;;75.57;9.93;;;;;;;9.69;100.00;100016.59;4986581;28;20046;-74
2022/12/22 10:33:38;;;;;;;86.00;11.65;;;;;;;9.70;100.00;100013.53;5028227;28;20042;-74
2022/12/22 10:36:04;;;;;;;78.55;10.73;;;;;;;9.72;100.00;100013.22;5017682;28;20781;-74
2022/12/22 10:38:34;;;;;;;90.72;10.73;;;;;;;9.73;100.00;100010.16;5005836;28;20030;-74
2022/12/22 10:41:11;;;;;;;62.13;11.02;;;;;;;9.71;100.00;100003.25;5022980;28;20072;-73
2022/12/22 10:43:38;;;;;;;78.72;11.30;;;;;;;9.74;100.00;99999.88;5020772;28;20026;-73
2022/12/22 10:46:03;;;;;;;77.95;11.55;;;;;;;9.75;100.00;99994.06;5014343;28;20038;-74
2022/12/22 10:48:33;;;;;;;73.82;10.85;;;;;;;9.75;100.00;99993.19;5015548;28;20040;-74
2022/12/22 10:50:59;;;;;;;80.55;10.88;;;;;;;9.77;100.00;99989.00;5015024;28;20034;-73
2022/12/22 10:53:51;;;;;;;81.95;11.43;;;;;;;9.77;100.00;99979.88;5018082;28;20311;-74
2022/12/22 10:56:22;;;;;;;63.75;9.43;;;;;;;9.78;100.00;99981.53;5016428;28;20670;-73
2022/12/22 10:58:49;;;;;;;87.03;11.32;;;;;;;9.77;100.00;99968.78;5018291;28;20045;-73
2022/12/22 11:01:22;;;;;;;81.07;9.93;;;;;;;9.79;100.00;99970.13;5019181;28;20034;-73
2022/12/22 11:03:48;;;;;;;74.95;10.75;;;;;;;9.80;100.00;99962.63;5018749;28;20030;-73
2022/12/22 11:06:13;;;;;;;69.68;10.23;;;;;;;9.81;100.00;99953.19;5020550;28;20041;-74
2022/12/22 11:08:39;;;;;;;69.97;9.63;;;;;;;9.81;100.00;99953.19;4998157;28;20060;-74
2022/12/22 11:11:06;;;;;;;67.93;9.90;;;;;;;9.82;100.00;99950.09;5018036;28;20060;-74
2022/12/22 11:13:57;;;;;;;72.03;9.95;;;;;;;9.85;100.00;99948.69;4997090;28;20119;-73
2022/12/22 11:16:41;;;;;;;79.97;11.07;;;;;;;9.85;100.00;99926.50;5007728;28;20137;-74
2022/12/22 11:19:55;;;;;;;58.92;9.52;;;;;;;9.87;100.00;99931.75;5021671;28;20109;-74
2022/12/22 11:23:01;;;;;;;81.30;11.27;;;;;;;9.89;100.00;99922.00;5012173;28;20054;-74
2022/12/22 11:25:42;;;;;;;80.18;10.80;;;;;;;9.89;100.00;99921.16;4997551;28;20085;-73
2022/12/22 11:28:16;;;;;;;79.70;10.38;;;;;;;9.91;100.00;99925.28;5012806;28;20435;-74
2022/12/22 11:30:47;;;;;;;74.80;10.50;;;;;;;9.94;100.00;99919.09;5015698;28;20072;-74
2022/12/22 11:33:16;;;;;;;70.68;11.27;;;;;;;9.95;100.00;99915.22;5017997;28;20065;-73
2022/12/22 11:36:01;;;;;;;55.65;9.48;;;;;;;9.95;100.00;99906.91;5018732;28;20536;-74
2022/12/22 11:38:54;;;;;;;66.45;10.32;;;;;;;9.98;100.00;99909.06;5032855;28;20452;-74
2022/12/22 11:41:20;;;;;;;90.43;10.90;;;;;;;9.99;100.00;99896.84;5012290;28;20034;-74
2022/12/22 11:44:05;;;;;;;68.80;10.45;;;;;;;10.02;100.00;99895.41;5053860;28;20049;-74
2022/12/22 11:46:43;;;;;;;72.78;10.20;;;;;;;10.05;100.00;99881.72;5028031;28;20029;-74
2022/12/22 11:49:31;;;;;;;66.72;10.60;;;;;;;10.06;100.00;99872.31;5045695;28;20033;-74
2022/12/22 11:51:59;;;;;;;80.90;11.02;;;;;;;10.11;100.00;99867.78;5001229;28;20044;-74
2022/12/22 11:54:54;;;;;;;56.95;9.15;;;;;;;10.10;100.00;99860.59;5022449;28;20037;-74
2022/12/22 11:57:37;;;;;;;62.05;10.10;;;;;;;10.13;100.00;99866.34;5011095;28;20102;-74
2022/12/22 12:00:13;;;;;;;64.68;9.07;;;;;;;10.14;100.00;99858.84;5017508;28;20033;-73
2022/12/22 12:02:50;;;;;;;60.42;9.00;;;;;;;10.15;100.00;99846.63;5019388;28;20030;-74
2022/12/22 12:05:57;;;;;;;55.10;8.38;;;;;;;10.20;100.00;99836.25;5016561;28;20042;-74
2022/12/22 12:08:42;;;;;;;51.90;8.38;;;;;;;10.22;100.00;99795.13;5041116;28;20030;-73
2022/12/22 12:11:26;;;;;;;48.22;7.80;;;;;;;10.25;100.00;99807.56;5005128;28;20121;-74
2022/12/22 12:13:59;;;;;;;38.38;7.72;;;;;;;10.27;100.00;99817.25;5045839;28;20037;-74
2022/12/22 12:16:32;;;;;;;;;;;;;;;10.28;100.00;99801.44;5017163;28;20030;-74
2022/12/22 12:19:35;;;;;;;43.97;7.35;;;;;;;10.30;100.00;99779.72;5016277;28;19921;-74
2022/12/22 12:22:02;;;;;;;39.95;7.00;;;;;;;10.30;100.00;99763.06;5018616;28;20069;-74
2022/12/22 12:24:39;;;;;;;37.42;5.90;;;;;;;10.32;100.00;99763.59;5010281;28;20144;-74
2022/12/22 12:27:15;;;;;;;37.97;6.68;;;;;;;10.35;100.00;99762.16;5017657;28;20575;-74
2022/12/22 12:30:18;;;;;;;33.13;6.07;;;;;;;10.37;100.00;99744.06;5028733;28;20363;-74
2022/12/22 12:33:01;;;;;;;34.20;6.47;;;;;;;10.38;100.00;99739.31;5029611;28;20029;-73
2022/12/22 12:36:00;;;;;;;31.60;5.57;;;;;;;10.39;100.00;99718.75;5017504;28;20038;-74
2022/12/22 12:38:53;;;;;;;25.98;5.25;;;;;;;10.42;100.00;99713.41;5017404;28;20065;-74
2022/12/22 12:41:27;;;;;;;22.85;5.07;;;;;;;10.44;100.00;99713.91;5008998;28;20074;-74
2022/12/22 12:43:53;;;;;;;22.67;4.78;;;;;;;10.45;100.00;99701.69;5023669;28;20033;-74
2022/12/22 12:46:40;;;;;;;23.77;4.47;;;;;;;10.46;100.00;99705.28;5032471;28;20116;-73
2022/12/22 12:49:31;;;;;;;22.17;4.60;;;;;;;10.48;100.00;99700.25;5017110;28;20045;-74
2022/12/22 12:51:56;;;;;;;18.60;4.28;;;;;;;10.47;100.00;99691.09;5007107;28;20044;-74
2022/12/22 12:54:42;;;;;;;19.98;4.20;;;;;;;10.51;100.00;99700.44;5019975;28;20018;-74
2022/12/22 12:57:25;;;;;;;19.00;4.10;;;;;;;10.52;100.00;99687.34;5007337;28;20720;-74
2022/12/22 12:59:52;;;;;;;14.32;3.85;;;;;;;10.55;100.00;99683.13;5005759;28;20069;-74
2022/12/22 13:02:27;;;;;;;15.30;3.78;;;;;;;10.56;100.00;99676.44;5018685;28;20056;-74
2022/12/22 13:05:14;;;;;;;12.32;3.13;;;;;;;10.57;100.00;99667.00;5016819;28;20060;-74
2022/12/22 13:08:05;;;;;;;11.77;3.33;;;;;;;10.60;100.00;99669.13;5016113;28;20037;-74
2022/12/22 13:10:32;;;;;;;10.00;2.97;;;;;;;10.60;100.00;99672.72;5014704;28;20041;-74
2022/12/22 13:12:57;;;;;;;11.40;3.05;;;;;;;10.62;100.00;99673.25;5023581;28;20025;-74
2022/12/22 13:15:33;;;;;;;11.68;2.58;;;;;;;10.65;100.00;99669.84;5017754;28;20018;-74
2022/12/22 13:17:59;;;;;;;9.68;2.90;;;;;;;10.66;100.00;99665.91;5013164;28;20033;-74
2022/12/22 13:20:32;;;;;;;8.95;2.28;;;;;;;10.67;100.00;99658.41;5016242;28;20055;-74
2022/12/22 13:22:59;;;;;;;6.53;2.00;;;;;;;10.69;100.00;99656.94;5023715;28;20116;-73
2022/12/22 13:25:31;;;;;;;9.68;2.30;;;;;;;10.71;100.00;99664.97;5014534;28;20034;-74
2022/12/22 13:27:56;;;;;;;10.50;2.45;;;;;;;10.73;100.00;99669.09;5015261;28;20032;-74
2022/12/22 13:30:22;;;;;;;9.55;1.92;;;;;;;10.73;100.00;99657.97;5015030;28;20029;-74
2022/12/22 13:32:48;;;;;;;8.13;2.08;;;;;;;10.77;100.00;99662.88;5015415;28;20029;-73
2022/12/22 13:35:40;;;;;;;8.32;1.83;;;;;;;10.79;100.00;99661.44;5012884;28;20030;-73
2022/12/22 13:38:05;;;;;;;7.75;2.08;;;;;;;10.80;100.00;99648.38;5014016;28;20054;-73
2022/12/22 13:40:41;;;;;;;7.15;2.10;;;;;;;10.80;100.00;99649.19;5031423;28;20065;-73
2022/12/22 13:43:14;;;;;;;7.15;1.90;;;;;;;10.82;100.00;99660.81;5014884;28;20367;-73
2022/12/22 13:45:53;;;;;;;8.55;1.90;;;;;;;10.83;100.00;99659.66;5039181;28;20030;-74
2022/12/22 13:48:49;;;;;;;7.53;1.75;;;;;;;10.85;100.00;99653.78;5037248;28;20510;-74
2022/12/22 13:51:20;;;;;;;5.60;1.65;;;;;;;10.85;100.00;99648.25;5010558;28;20112;-74
2022/12/22 13:53:53;;;;;;;4.85;1.50;;;;;;;10.87;100.00;99651.53;5014987;28;20044;-73
2022/12/22 13:56:22;;;;;;;4.70;1.58;;;;;;;10.86;100.00;99639.56;4999447;28;20054;-74
2022/12/22 13:58:58;;;;;;;4.20;1.20;;;;;;;10.90;100.00;99648.94;5014785;28;20034;-73
2022/12/22 14:01:24;;;;;;;6.90;1.67;;;;;;;10.92;100.00;99630.00;5004275;28;20030;-73
2022/12/22 14:03:52;;;;;;;4.78;1.70;;;;;;;10.92;100.00;99635.56;5015790;28;20034;-74
2022/12/22 14:06:34;;;;;;;2.70;1.42;;;;;;;10.95;100.00;99626.59;5026629;28;20479;-74
2022/12/22 14:09:17;;;;;;;5.10;1.52;;;;;;;10.98;100.00;99624.28;5015583;28;20033;-74
2022/12/22 14:12:05;;;;;;;5.38;1.67;;;;;;;10.99;100.00;99643.44;5015998;28;20026;-73
2022/12/22 14:14:35;;;;;;;4.38;1.48;;;;;;;11.05;100.00;99639.38;5057074;28;20033;-73
2022/12/22 14:17:00;;;;;;;4.22;1.30;;;;;;;11.08;100.00;99641.50;5017684;28;20037;-74
2022/12/22 14:19:33;;;;;;;2.55;1.45;;;;;;;11.10;100.00;99638.41;5015442;28;20034;-74
2022/12/22 14:21:59;;;;;;;;;;;;;;;11.13;100.00;99641.38;4998720;28;20524;-74
2022/12/22 14:24:24;;;;;;;6.60;1.42;;;;;;;11.15;100.00;99636.31;5018254;28;19918;-74
2022/12/22 14:26:51;;;;;;;5.28;1.58;;;;;;;11.16;100.00;99651.03;5014540;28;20030;-74
2022/12/22 14:29:18;;;;;;;1.83;1.13;;;;;;;11.18;100.00;99654.31;5014283;28;20049;-74
2022/12/22 14:31:52;;;;;;;9.00;2.50;;;;;;;11.22;100.00;99651.72;5013420;28;20034;-75
2022/12/22 14:34:31;;;;;;;6.18;1.55;;;;;;;11.20;100.00;99649.28;5015156;28;20480;-74
2022/12/22 14:36:57;;;;;;;3.17;1.40;;;;;;;11.22;100.00;99652.53;4997716;28;20506;-73
2022/12/22 14:39:29;;;;;;;2.53;1.40;;;;;;;11.23;100.00;99659.75;5015416;28;20100;-73
2022/12/22 14:42:02;;;;;;;4.15;1.50;;;;;;;11.24;100.00;99652.22;5015063;28;20398;-74
2022/12/22 14:44:41;;;;;;;5.90;1.40;;;;;;;11.26;100.00;99649.97;5001601;28;20037;-74
2022/12/22 14:47:16;;;;;;;2.45;1.20;;;;;;;11.29;100.00;99650.13;5015519;28;20673;-73
2022/12/22 14:49:56;;;;;;;3.55;1.50;;;;;;;11.29;100.00;99664.03;5015106;28;20038;-74
2022/12/22 14:52:28;;;;;;;2.40;1.33;;;;;;;11.29;100.00;99650.13;5014383;28;20072;-74
2022/12/22 14:54:53;;;;;;;2.50;1.50;;;;;;;11.31;100.00;99658.13;5015525;28;20030;-74
2022/12/22 14:57:37;;;;;;;2.35;1.20;;;;;;;11.28;100.00;99654.06;5014126;28;20080;-73
2022/12/22 15:00:27;;;;;;;3.13;1.52;;;;;;;11.30;100.00;99657.31;4990402;28;20390;-74
2022/12/22 15:02:54;;;;;;;3.38;1.35;;;;;;;11.32;100.00;99648.66;5015735;28;20034;-74
2022/12/22 15:05:27;;;;;;;3.88;1.17;;;;;;;11.33;100.00;99665.00;5023582;28;20034;-73
2022/12/22 15:07:54;;;;;;;3.50;1.20;;;;;;;11.34;100.00;99668.63;5027677;28;20124;-74
2022/12/22 15:10:20;;;;;;;4.43;1.58;;;;;;;11.36;100.00;99669.94;5015354;28;20689;-73